createdAt,value
2022-07-26T00:00:38.964Z,98331.29
2022-07-26T00:03:44.458Z,98335.15
2022-07-26T00:06:50.013Z,98333.73
2022-07-26T00:09:55.362Z,98333.84
2022-07-26T00:13:00.691Z,98337.90
2022-07-26T00:16:06.835Z,98332.89
2022-07-26T00:19:12.330Z,98327.21
2022-07-26T00:22:35.983Z,98326.23
2022-07-26T00:25:41.470Z,98317.61
2022-07-26T00:28:47.025Z,98316.66
2022-07-26T00:31:52.458Z,98307.43
2022-07-26T00:34:57.949Z,98301.20
2022-07-26T00:38:03.297Z,98301.17
2022-07-26T00:41:10.298Z,98300.17
2022-07-26T00:44:15.669Z,98296.73
2022-07-26T00:47:21.069Z,98295.71
2022-07-26T00:50:26.504Z,98292.39
2022-07-26T00:53:31.861Z,98293.38
2022-07-26T00:56:37.408Z,98291.13
2022-07-26T00:59:43.105Z,98286.95
2022-07-26T01:02:48.656Z,98289.48
2022-07-26T01:05:54.462Z,98290.33
2022-07-26T01:09:00.704Z,98284.14
2022-07-26T01:12:06.734Z,98285.77
2022-07-26T01:15:14.969Z,98286.80
2022-07-26T01:18:20.518Z,98288.59
2022-07-26T01:21:29.239Z,98283.58
2022-07-26T01:24:34.629Z,98277.92
2022-07-26T01:27:40.559Z,98277.34
2022-07-26T01:30:46.018Z,98272.14
2022-07-26T01:33:51.998Z,98269.58
2022-07-26T01:36:57.435Z,98265.05
2022-07-26T01:40:02.846Z,98265.92
2022-07-26T01:43:08.234Z,98261.30
2022-07-26T01:46:14.273Z,98263.04
2022-07-26T01:49:18.595Z,98255.38
2022-07-26T01:52:24.082Z,98253.50
2022-07-26T01:55:29.480Z,98250.07
2022-07-26T01:58:34.923Z,98248.99
2022-07-26T02:01:40.518Z,98250.05
2022-07-26T02:05:01.895Z,98249.89
2022-07-26T02:08:07.633Z,98246.55
2022-07-26T02:11:15.096Z,98242.09
2022-07-26T02:14:26.058Z,98237.73
2022-07-26T02:17:33.709Z,98233.89
2022-07-26T02:20:39.141Z,98229.52
2022-07-26T02:23:44.486Z,98228.30
2022-07-26T02:26:50.087Z,98226.76
2022-07-26T02:29:55.450Z,98225.26
2022-07-26T02:33:00.778Z,98225.65
2022-07-26T02:36:06.804Z,98225.36
2022-07-26T02:39:12.578Z,98226.23
2022-07-26T02:42:17.957Z,98224.58
2022-07-26T02:45:23.945Z,98224.33
2022-07-26T02:48:29.320Z,98218.48
2022-07-26T02:51:34.777Z,98216.89
2022-07-26T02:54:40.130Z,98217.30
2022-07-26T02:57:46.761Z,98215.95
2022-07-26T03:00:52.246Z,98210.17
2022-07-26T03:03:57.581Z,98206.20
2022-07-26T03:07:02.983Z,98210.02
2022-07-26T03:10:11.293Z,98204.25
2022-07-26T03:13:16.637Z,98202.84
2022-07-26T03:16:24.868Z,98198.41
2022-07-26T03:19:34.324Z,98194.55
2022-07-26T03:22:39.679Z,98191.38
2022-07-26T03:25:45.226Z,98184.84
2022-07-26T03:28:50.558Z,98184.37
2022-07-26T03:31:55.905Z,98181.44
2022-07-26T03:35:01.421Z,98174.21
2022-07-26T03:38:06.912Z,98174.86
2022-07-26T03:41:13.414Z,98169.11
2022-07-26T03:44:19.178Z,98166.80
2022-07-26T03:47:24.506Z,98163.06
2022-07-26T03:50:30.037Z,98158.16
2022-07-26T03:53:35.965Z,98160.04
2022-07-26T03:56:41.366Z,98156.02
2022-07-26T03:59:46.740Z,98151.72
2022-07-26T04:02:52.177Z,98148.69
2022-07-26T04:05:57.674Z,98145.61
2022-07-26T04:09:02.285Z,98142.88
2022-07-26T04:12:11.350Z,98144.25
2022-07-26T04:15:19.144Z,98143.47
2022-07-26T04:18:25.554Z,98143.59
2022-07-26T04:21:30.886Z,98139.72
2022-07-26T04:24:36.345Z,98134.89
2022-07-26T04:27:41.856Z,98132.04
2022-07-26T04:30:47.244Z,98131.72
2022-07-26T04:33:53.025Z,98135.13
2022-07-26T04:36:58.362Z,98134.95
2022-07-26T04:40:03.937Z,98133.45
2022-07-26T04:43:10.033Z,98131.32
2022-07-26T04:59:32.748Z,98130.52
2022-07-26T05:02:39.112Z,98134.06
2022-07-26T05:05:45.367Z,98133.39
2022-07-26T05:08:51.539Z,98136.73
2022-07-26T05:11:57.711Z,98135.78
2022-07-26T05:15:04.565Z,98139.62
2022-07-26T05:18:13.877Z,98139.88
2022-07-26T05:21:20.487Z,98144.17
2022-07-26T05:24:26.608Z,98147.66
2022-07-26T05:27:32.890Z,98148.38
2022-07-26T05:30:39.210Z,98146.54
2022-07-26T05:33:45.442Z,98143.61
2022-07-26T05:36:51.700Z,98140.90
2022-07-26T05:39:57.971Z,98132.42
2022-07-26T05:43:04.990Z,98135.97
2022-07-26T05:46:11.343Z,98136.95
2022-07-26T05:49:17.730Z,98134.36
2022-07-26T05:52:25.072Z,98127.45
2022-07-26T05:55:31.237Z,98131.81
2022-07-26T05:58:37.675Z,98130.72
2022-07-26T06:01:43.899Z,98131.34
2022-07-26T06:04:50.167Z,98132.45
2022-07-26T06:07:56.366Z,98125.73
2022-07-26T06:11:02.519Z,98121.38
2022-07-26T06:14:09.011Z,98128.52
2022-07-26T06:17:15.369Z,98129.02
2022-07-26T06:20:21.602Z,98130.50
2022-07-26T06:23:31.987Z,98128.67
2022-07-26T06:26:41.368Z,98129.37
2022-07-26T06:29:49.266Z,98127.96
2022-07-26T06:32:55.479Z,98134.39
2022-07-26T06:36:01.733Z,98144.80
2022-07-26T06:39:08.171Z,98157.20
2022-07-26T06:42:14.187Z,98175.27
2022-07-26T06:45:20.871Z,98178.19
2022-07-26T06:48:26.907Z,98180.91
2022-07-26T06:51:33.145Z,98189.61
2022-07-26T06:54:39.467Z,98194.52
2022-07-26T06:57:50.146Z,98195.88
2022-07-26T07:00:56.976Z,98188.88
2022-07-26T07:04:03.203Z,98190.23
2022-07-26T07:07:09.371Z,98184.05
2022-07-26T07:10:15.507Z,98184.23
2022-07-26T07:13:22.271Z,98182.00
2022-07-26T07:16:28.400Z,98187.05
2022-07-26T07:19:36.205Z,98185.43
2022-07-26T07:22:42.310Z,98186.54
2022-07-26T07:25:48.843Z,98192.94
2022-07-26T07:28:55.068Z,98198.91
2022-07-26T07:32:03.600Z,98202.56
2022-07-26T07:35:12.740Z,98205.52
2022-07-26T07:38:19.860Z,98213.36
2022-07-26T07:41:28.812Z,98213.39
2022-07-26T07:44:35.014Z,98214.22
2022-07-26T07:47:41.626Z,98219.41
2022-07-26T07:50:48.148Z,98229.21
2022-07-26T07:53:56.304Z,98234.89
2022-07-26T07:57:03.654Z,98243.52
2022-07-26T08:00:12.816Z,98248.37
2022-07-26T08:03:22.406Z,98249.33
2022-07-26T08:06:28.533Z,98266.72
2022-07-26T08:09:34.534Z,98270.54
2022-07-26T08:12:40.475Z,98276.83
2022-07-26T08:15:46.695Z,98278.98
2022-07-26T08:19:08.737Z,98290.21
2022-07-26T08:22:15.266Z,98304.95
2022-07-26T08:25:21.953Z,98307.89
2022-07-26T08:31:55.135Z,98317.40
2022-07-26T08:35:17.793Z,98318.95
2022-07-26T08:38:25.880Z,98323.02
2022-07-26T08:41:32.139Z,98324.86
2022-07-26T08:44:38.409Z,98328.78
2022-07-26T08:48:07.315Z,98342.07
2022-07-26T08:51:12.971Z,98355.30
2022-07-26T08:54:20.181Z,98373.05
2022-07-26T08:57:26.383Z,98385.03
2022-07-26T09:00:33.768Z,98392.03
2022-07-26T09:03:40.288Z,98393.73
2022-07-26T09:06:58.220Z,98402.31
2022-07-26T09:10:07.747Z,98405.44
2022-07-26T09:13:13.660Z,98413.48
2022-07-26T09:16:19.760Z,98425.30
2022-07-26T09:19:25.932Z,98420.14
2022-07-26T09:22:32.290Z,98419.87
2022-07-26T09:25:39.868Z,98417.52
2022-07-26T09:28:46.078Z,98419.20
2022-07-26T09:31:52.265Z,98430.83
2022-07-26T09:35:44.091Z,98445.95
2022-07-26T09:38:45.428Z,98449.17
2022-07-26T09:42:17.565Z,98450.73
2022-07-26T09:45:20.295Z,98450.59
2022-07-26T09:48:46.154Z,98454.36
2022-07-26T09:51:58.086Z,98454.45
2022-07-26T09:55:08.382Z,98456.05
2022-07-26T09:58:17.560Z,98462.73
2022-07-26T10:01:23.862Z,98461.41
2022-07-26T10:04:30.532Z,98460.61
2022-07-26T10:07:37.924Z,98470.71
2022-07-26T10:10:51.928Z,98477.71
2022-07-26T10:13:58.970Z,98483.15
2022-07-26T10:17:49.507Z,98490.28
2022-07-26T10:20:55.804Z,98501.91
2022-07-26T10:24:03.946Z,98505.18
2022-07-26T10:27:09.964Z,98504.41
2022-07-26T10:30:35.075Z,98504.20
2022-07-26T10:33:46.997Z,98509.37
2022-07-26T10:37:00.643Z,98513.42
2022-07-26T10:40:30.308Z,98512.86
2022-07-26T10:43:41.551Z,98509.02
2022-07-26T10:47:16.774Z,98511.22
2022-07-26T10:50:35.050Z,98509.25
2022-07-26T10:53:41.631Z,98512.42
2022-07-26T10:56:47.851Z,98520.52
2022-07-26T10:59:56.847Z,98528.84
2022-07-26T11:03:03.167Z,98524.80
2022-07-26T11:06:18.726Z,98527.90
2022-07-26T11:09:24.859Z,98522.08
2022-07-26T11:12:30.947Z,98519.77
2022-07-26T11:15:38.175Z,98518.09
2022-07-26T11:18:44.439Z,98517.16
2022-07-26T11:21:56.635Z,98513.17
2022-07-26T11:25:03.283Z,98514.48
2022-07-26T11:28:09.639Z,98519.83
2022-07-26T11:31:16.698Z,98517.93
2022-07-26T11:34:28.272Z,98522.27
2022-07-26T11:37:34.478Z,98523.70
2022-07-26T11:40:48.835Z,98522.48
2022-07-26T11:44:01.893Z,98529.89
2022-07-26T11:47:16.034Z,98532.77
2022-07-26T11:50:23.275Z,98538.64
2022-07-26T11:53:29.843Z,98540.45
2022-07-26T11:56:35.921Z,98536.33
2022-07-26T11:59:44.989Z,98535.18
2022-07-26T12:02:55.765Z,98532.45
2022-07-26T12:06:10.493Z,98529.78
2022-07-26T12:09:31.327Z,98525.89
2022-07-26T12:12:37.510Z,98523.53
2022-07-26T12:15:51.771Z,98518.04
2022-07-26T12:18:58.095Z,98517.27
2022-07-26T12:22:13.499Z,98516.27
2022-07-26T12:25:25.636Z,98509.78
2022-07-26T12:28:46.851Z,98505.47
2022-07-26T12:32:11.855Z,98503.83
2022-07-26T12:35:29.518Z,98509.39
2022-07-26T12:38:44.964Z,98508.17
2022-07-26T12:41:54.232Z,98507.77
2022-07-26T12:45:01.537Z,98512.02
2022-07-26T12:48:12.009Z,98510.73
2022-07-26T12:51:18.241Z,98510.69
2022-07-26T12:54:29.370Z,98511.57
2022-07-26T12:57:37.013Z,98511.81
2022-07-26T13:00:43.255Z,98513.27
2022-07-26T13:03:49.550Z,98513.65
2022-07-26T13:06:55.657Z,98518.39
2022-07-26T13:10:31.713Z,98521.68
2022-07-26T13:13:28.212Z,98519.30
2022-07-26T13:16:34.425Z,98522.96
2022-07-26T13:19:40.643Z,98522.32
2022-07-26T13:22:46.873Z,98520.41
2022-07-26T13:25:54.003Z,98524.20
2022-07-26T13:29:00.713Z,98531.69
2022-07-26T13:32:07.822Z,98531.22
2022-07-26T13:35:14.160Z,98532.02
2022-07-26T13:38:20.488Z,98528.59
2022-07-26T13:41:26.662Z,98532.58
2022-07-26T13:44:34.927Z,98537.91
2022-07-26T13:47:41.072Z,98537.08
2022-07-26T13:50:47.287Z,98538.05
2022-07-26T13:53:55.395Z,98540.98
2022-07-26T13:57:03.333Z,98547.35
2022-07-26T14:00:11.575Z,98554.03
2022-07-26T14:03:18.339Z,98557.69
2022-07-26T14:06:26.519Z,98561.64
2022-07-26T14:09:32.742Z,98565.36
2022-07-26T14:12:40.979Z,98568.45
2022-07-26T14:15:47.080Z,98566.98
2022-07-26T14:18:55.191Z,98569.77
2022-07-26T14:22:01.356Z,98579.73
2022-07-26T14:25:08.683Z,98587.48
2022-07-26T14:28:14.856Z,98593.20
2022-07-26T14:31:21.489Z,98603.77
2022-07-26T14:34:27.769Z,98607.15
2022-07-26T14:37:43.940Z,98606.86
2022-07-26T14:40:51.796Z,98615.71
2022-07-26T14:43:57.944Z,98627.75
2022-07-26T14:47:04.322Z,98637.73
2022-07-26T14:50:17.199Z,98646.77
2022-07-26T14:53:25.003Z,98651.70
2022-07-26T14:56:31.204Z,98645.89
2022-07-26T14:59:37.367Z,98644.16
2022-07-26T15:02:45.495Z,98652.63
2022-07-26T15:05:51.848Z,98650.95
2022-07-26T15:08:57.999Z,98649.85
2022-07-26T15:12:04.177Z,98645.52
2022-07-26T15:15:12.160Z,98643.03
2022-07-26T15:18:18.369Z,98647.24
2022-07-26T15:21:24.594Z,98655.36
2022-07-26T15:24:30.879Z,98656.23
2022-07-26T15:27:37.051Z,98657.59
2022-07-26T15:30:43.232Z,98655.49
2022-07-26T15:33:49.476Z,98652.40
2022-07-26T15:36:55.659Z,98652.93
2022-07-26T15:40:01.972Z,98654.09
2022-07-26T15:43:08.120Z,98643.39
2022-07-26T15:46:14.330Z,98640.08
2022-07-26T15:49:22.260Z,98639.52
2022-07-26T15:52:28.503Z,98640.98
2022-07-26T15:55:34.845Z,98642.73
2022-07-26T15:58:40.998Z,98644.00
2022-07-26T16:01:47.454Z,98653.37
2022-07-26T16:04:53.552Z,98656.02
2022-07-26T16:07:59.780Z,98654.57
2022-07-26T16:11:06.170Z,98654.13
2022-07-26T16:14:12.357Z,98651.52
2022-07-26T16:17:18.568Z,98647.55
2022-07-26T16:20:24.745Z,98650.98
2022-07-26T16:23:30.901Z,98659.08
2022-07-26T16:26:37.370Z,98663.09
2022-07-26T16:29:43.699Z,98663.29
2022-07-26T16:32:50.290Z,98662.37
2022-07-26T16:35:56.860Z,98661.80
2022-07-26T16:39:03.198Z,98663.17
2022-07-26T16:42:09.510Z,98663.38
2022-07-26T16:45:15.834Z,98660.98
2022-07-26T16:48:22.019Z,98656.10
2022-07-26T16:51:28.404Z,98659.44
2022-07-26T16:54:34.648Z,98660.58
2022-07-26T16:57:41.422Z,98664.35
2022-07-26T17:00:48.035Z,98665.70
2022-07-26T17:03:54.308Z,98664.96
2022-07-26T17:07:23.894Z,98662.80
2022-07-26T17:10:27.122Z,98663.67
2022-07-26T17:13:33.383Z,98659.04
2022-07-26T17:16:39.866Z,98660.06
2022-07-26T17:19:46.071Z,98661.61
2022-07-26T17:22:52.224Z,98659.23
2022-07-26T17:25:58.908Z,98655.21
2022-07-26T17:29:06.353Z,98655.23
2022-07-26T17:32:12.854Z,98651.42
2022-07-26T17:35:19.055Z,98649.55
2022-07-26T17:38:25.289Z,98650.96
2022-07-26T17:41:33.524Z,98648.34
2022-07-26T17:44:40.340Z,98646.27
2022-07-26T17:47:46.965Z,98642.38
2022-07-26T17:50:53.083Z,98644.79
2022-07-26T17:53:59.240Z,98649.96
2022-07-26T17:57:06.632Z,98650.59
2022-07-26T18:00:15.023Z,98651.91
2022-07-26T18:03:21.490Z,98651.58
2022-07-26T18:06:27.682Z,98649.70
2022-07-26T18:09:35.328Z,98650.63
2022-07-26T18:12:41.977Z,98645.93
2022-07-26T18:15:48.447Z,98656.98
2022-07-26T18:18:54.728Z,98661.92
2022-07-26T18:22:05.760Z,98662.25
2022-07-26T18:25:12.988Z,98661.11
2022-07-26T18:28:19.289Z,98659.89
2022-07-26T18:31:25.616Z,98667.33
2022-07-26T18:34:31.933Z,98670.52
2022-07-26T18:37:38.127Z,98675.77
2022-07-26T18:40:44.291Z,98681.63
2022-07-26T18:43:50.437Z,98677.98
2022-07-26T18:46:56.646Z,98684.98
2022-07-26T18:50:02.879Z,98684.36
2022-07-26T18:53:08.989Z,98689.70
2022-07-26T18:56:15.167Z,98689.17
2022-07-26T18:59:21.350Z,98693.74
2022-07-26T19:02:27.609Z,98695.23
2022-07-26T19:05:35.218Z,98694.98
2022-07-26T19:08:42.055Z,98697.94
2022-07-26T19:11:48.236Z,98699.01
2022-07-26T19:14:54.553Z,98698.20
2022-07-26T19:18:09.600Z,98695.21
2022-07-26T19:21:15.852Z,98693.77
2022-07-26T19:24:24.056Z,98693.66
2022-07-26T19:27:30.350Z,98688.26
2022-07-26T19:30:36.902Z,98682.15
2022-07-26T19:33:43.275Z,98677.83
2022-07-26T19:36:51.179Z,98675.44
2022-07-26T19:40:00.633Z,98676.55
2022-07-26T19:43:06.972Z,98677.77
2022-07-26T19:46:13.272Z,98675.59
2022-07-26T19:49:19.624Z,98666.25
2022-07-26T19:52:26.046Z,98660.48
2022-07-26T19:55:32.271Z,98658.91
2022-07-26T19:58:38.521Z,98659.05
2022-07-26T20:01:45.176Z,98659.15
2022-07-26T20:04:51.532Z,98653.98
2022-07-26T20:07:57.781Z,98655.95
2022-07-26T20:11:03.966Z,98656.85
2022-07-26T20:14:10.512Z,98656.86
2022-07-26T20:17:16.935Z,98658.70
2022-07-26T20:20:24.843Z,98659.34
2022-07-26T20:23:31.606Z,98660.45
2022-07-26T20:26:38.612Z,98664.10
2022-07-26T20:29:44.744Z,98667.71
2022-07-26T20:32:50.866Z,98674.84
2022-07-26T20:35:57.068Z,98675.95
2022-07-26T20:39:03.559Z,98675.91
2022-07-26T20:42:13.536Z,98675.71
2022-07-26T20:45:27.684Z,98678.17
2022-07-26T20:48:33.911Z,98679.60
2022-07-26T20:51:40.534Z,98680.96
2022-07-26T20:54:46.743Z,98682.23
2022-07-26T20:57:53.064Z,98682.45
2022-07-26T21:00:59.514Z,98680.81
2022-07-26T21:04:05.976Z,98682.00
2022-07-26T21:07:12.194Z,98679.36
2022-07-26T21:10:18.388Z,98680.94
2022-07-26T21:13:25.111Z,98687.81
2022-07-26T21:16:31.366Z,98685.33
2022-07-26T21:19:37.775Z,98690.00
2022-07-26T21:22:43.609Z,98687.55
2022-07-26T21:25:50.081Z,98693.43
2022-07-26T21:29:06.269Z,98697.21
2022-07-26T21:32:12.536Z,98696.45
2022-07-26T21:35:18.852Z,98701.67
2022-07-26T21:38:25.021Z,98701.17
2022-07-26T21:41:31.128Z,98707.77
2022-07-26T21:44:37.191Z,98704.39
2022-07-26T21:47:41.728Z,98704.13
2022-07-26T21:50:47.920Z,98714.79
2022-07-26T21:53:54.070Z,98715.43
2022-07-26T21:57:01.077Z,98715.77
2022-07-26T22:00:07.852Z,98713.38
2022-07-26T22:03:14.027Z,98713.75
2022-07-26T22:06:20.214Z,98716.27
2022-07-26T22:09:26.334Z,98710.27
2022-07-26T22:12:32.517Z,98712.85
2022-07-26T22:15:39.065Z,98720.66
2022-07-26T22:18:45.202Z,98721.77
2022-07-26T22:21:51.190Z,98723.47
2022-07-26T22:24:55.724Z,98720.64
2022-07-26T22:28:02.827Z,98723.04
2022-07-26T22:31:09.161Z,98722.83
2022-07-26T22:34:15.409Z,98721.13
2022-07-26T22:37:21.605Z,98719.70
2022-07-26T22:40:27.789Z,98718.06
2022-07-26T22:43:34.050Z,98716.30
2022-07-26T22:46:40.301Z,98717.38
2022-07-26T22:49:46.533Z,98719.29
2022-07-26T22:52:52.743Z,98720.66
2022-07-26T22:55:58.963Z,98718.94
2022-07-26T22:59:05.317Z,98719.98
2022-07-26T23:02:11.525Z,98717.63
2022-07-26T23:05:18.113Z,98725.66
2022-07-26T23:11:52.493Z,98724.84
2022-07-26T23:14:58.659Z,98721.41
2022-07-26T23:18:04.809Z,98719.09
2022-07-26T23:21:11.038Z,98722.09
2022-07-26T23:24:17.207Z,98722.31
2022-07-26T23:27:23.331Z,98719.77
2022-07-26T23:30:29.560Z,98719.31
2022-07-26T23:33:51.442Z,98717.65
2022-07-26T23:37:00.280Z,98716.74
2022-07-26T23:40:07.626Z,98719.05
2022-07-26T23:43:13.836Z,98724.86
2022-07-26T23:46:20.091Z,98721.40
2022-07-26T23:49:26.532Z,98725.91
2022-07-26T23:52:32.746Z,98726.80
2022-07-26T23:55:38.894Z,98729.55
2022-07-26T23:58:45.684Z,98733.80
